createdAt,value
2023-01-28T00:01:54.941Z,101199.30
2023-01-28T00:06:57.943Z,101204.43
2023-01-28T00:12:00.841Z,101192.62
2023-01-28T00:17:05.857Z,101189.66
2023-01-28T00:22:08.606Z,101190.09
2023-01-28T00:27:11.361Z,101189.69
2023-01-28T00:32:14.436Z,101183.16
2023-01-28T00:37:17.221Z,101187.11
2023-01-28T00:42:20.037Z,101190.96
2023-01-28T00:47:22.810Z,101188.52
2023-01-28T00:52:26.102Z,101194.46
2023-01-28T00:57:28.947Z,101189.87
2023-01-28T01:02:32.858Z,101192.78
2023-01-28T01:07:41.712Z,101189.49
2023-01-28T01:12:47.417Z,101184.77
2023-01-28T01:17:51.232Z,101182.66
2023-01-28T01:22:54.866Z,101183.59
2023-01-28T01:27:57.582Z,101185.39
2023-01-28T01:33:00.367Z,101189.48
2023-01-28T01:38:03.482Z,101187.19
2023-01-28T01:43:16.949Z,101184.54
2023-01-28T01:48:25.055Z,101182.75
2023-01-28T01:53:29.793Z,101179.33
2023-01-28T01:58:37.826Z,101167.58
2023-01-28T02:04:09.213Z,101165.11
2023-01-28T02:09:31.447Z,101163.41
2023-01-28T02:14:38.563Z,101158.80
2023-01-28T02:19:48.959Z,101165.15
2023-01-28T02:24:57.770Z,101168.48
2023-01-28T02:30:15.932Z,101169.40
2023-01-28T02:35:43.817Z,101168.77
2023-01-28T02:41:04.038Z,101162.66
2023-01-28T02:46:43.821Z,101162.73
2023-01-28T02:52:44.323Z,101161.86
2023-01-28T02:58:07.849Z,101157.40
2023-01-28T03:03:30.151Z,101152.19
2023-01-28T03:08:59.971Z,101158.44
2023-01-28T03:14:21.725Z,101155.55
2023-01-28T03:19:43.086Z,101153.55
2023-01-28T03:25:10.546Z,101156.59
2023-01-28T03:30:38.006Z,101149.75
2023-01-28T03:35:59.756Z,101148.80
2023-01-28T03:41:03.811Z,101150.52
2023-01-28T03:46:06.667Z,101150.20
2023-01-28T03:51:09.811Z,101152.64
2023-01-28T03:56:18.747Z,101157.08
2023-01-28T04:01:21.775Z,101155.80
2023-01-28T04:06:24.814Z,101157.48
2023-01-28T04:11:28.058Z,101157.65
2023-01-28T04:16:30.900Z,101149.91
2023-01-28T04:21:33.738Z,101147.80
2023-01-28T04:26:36.561Z,101149.58
2023-01-28T04:31:39.420Z,101150.99
2023-01-28T04:36:42.506Z,101149.35
2023-01-28T04:41:45.340Z,101148.94
2023-01-28T04:46:48.210Z,101153.20
2023-01-28T04:51:51.080Z,101166.31
2023-01-28T04:56:53.862Z,101165.91
2023-01-28T05:01:56.668Z,101165.52
2023-01-28T05:06:59.522Z,101171.89
2023-01-28T05:12:03.402Z,101176.36
2023-01-28T05:17:06.273Z,101177.58
2023-01-28T05:22:09.356Z,101178.68
2023-01-28T05:27:12.277Z,101183.06
2023-01-28T05:32:15.111Z,101183.16
2023-01-28T05:37:18.127Z,101185.08
2023-01-28T05:42:22.696Z,101188.05
2023-01-28T05:47:25.496Z,101192.98
2023-01-28T05:52:28.291Z,101196.73
2023-01-28T05:57:31.111Z,101192.79
2023-01-28T06:02:33.966Z,101196.48
2023-01-28T06:07:36.858Z,101193.64
2023-01-28T06:12:39.931Z,101208.55
2023-01-28T06:17:42.679Z,101209.47
2023-01-28T06:22:45.481Z,101206.33
2023-01-28T06:27:48.242Z,101210.66
2023-01-28T06:32:55.691Z,101213.52
2023-01-28T06:37:58.483Z,101208.95
2023-01-28T06:43:01.325Z,101212.87
2023-01-28T06:48:05.675Z,101211.37
2023-01-28T06:53:10.043Z,101221.83
2023-01-28T06:58:13.026Z,101217.51
2023-01-28T07:03:16.045Z,101219.05
2023-01-28T07:08:18.841Z,101221.09
2023-01-28T07:13:21.629Z,101222.31
2023-01-28T07:18:24.574Z,101221.52
2023-01-28T07:23:29.067Z,101224.02
2023-01-28T07:28:32.138Z,101226.09
2023-01-28T07:33:35.423Z,101230.44
2023-01-28T07:38:38.248Z,101236.91
2023-01-28T07:43:41.059Z,101243.31
2023-01-28T07:48:43.915Z,101247.08
2023-01-28T07:53:46.724Z,101236.47
2023-01-28T07:58:50.637Z,101236.73
2023-01-28T08:03:53.550Z,101239.88
2023-01-28T08:08:56.366Z,101239.53
2023-01-28T08:14:00.477Z,101235.77
2023-01-28T08:19:03.534Z,101241.67
2023-01-28T08:24:06.873Z,101244.85
2023-01-28T08:29:09.707Z,101244.27
2023-01-28T08:34:12.532Z,101235.11
2023-01-28T08:39:15.385Z,101237.64
2023-01-28T08:44:18.379Z,101235.92
2023-01-28T08:49:22.445Z,101233.27
2023-01-28T08:54:25.405Z,101238.58
2023-01-28T08:59:28.223Z,101226.74
2023-01-28T09:04:31.168Z,101219.70
2023-01-28T09:09:33.953Z,101216.58
2023-01-28T09:14:37.112Z,101216.14
2023-01-28T09:19:40.021Z,101210.27
2023-01-28T09:24:43.051Z,101207.27
2023-01-28T09:29:45.911Z,101210.10
2023-01-28T09:34:49.398Z,101212.02
2023-01-28T09:39:52.311Z,101216.16
2023-01-28T09:45:02.684Z,101211.63
2023-01-28T09:50:09.625Z,101210.52
2023-01-28T09:55:30.509Z,101199.77
2023-01-28T10:00:48.612Z,101197.32
2023-01-28T10:06:00.735Z,101198.58
2023-01-28T10:11:16.818Z,101200.80
2023-01-28T10:16:31.504Z,101200.65
2023-01-28T10:21:42.239Z,101213.36
2023-01-28T10:26:45.309Z,101217.48
2023-01-28T10:32:21.366Z,101213.54
2023-01-28T10:37:24.183Z,101209.97
2023-01-28T10:42:32.474Z,101202.64
2023-01-28T10:47:44.072Z,101201.45
2023-01-28T10:52:59.116Z,101203.64
2023-01-28T10:58:07.216Z,101193.67
2023-01-28T11:03:19.874Z,101189.98
2023-01-28T11:08:24.980Z,101181.23
2023-01-28T11:13:30.773Z,101179.84
2023-01-28T11:18:39.451Z,101177.80
2023-01-28T11:24:08.671Z,101182.94
2023-01-28T11:29:26.966Z,101182.79
2023-01-28T11:34:33.778Z,101180.09
2023-01-28T11:39:36.764Z,101170.41
2023-01-28T11:44:40.458Z,101170.59
2023-01-28T11:50:16.696Z,101168.77
2023-01-28T11:55:42.443Z,101171.63
2023-01-28T12:01:10.483Z,101157.42
2023-01-28T12:06:36.858Z,101160.56
2023-01-28T12:12:05.565Z,101161.11
2023-01-28T12:17:17.221Z,101157.13
2023-01-28T12:22:26.006Z,101156.64
2023-01-28T12:28:06.376Z,101153.14
2023-01-28T12:33:19.234Z,101150.94
2023-01-28T12:38:39.680Z,101143.56
2023-01-28T12:43:51.597Z,101134.35
2023-01-28T12:49:02.805Z,101136.92
2023-01-28T12:54:25.559Z,101132.70
2023-01-28T12:59:30.521Z,101122.13
2023-01-28T13:04:44.254Z,101123.44
2023-01-28T13:09:58.920Z,101132.20
2023-01-28T13:15:02.379Z,101123.77
2023-01-28T13:20:16.397Z,101126.58
2023-01-28T13:25:21.191Z,101124.24
2023-01-28T13:30:25.895Z,101117.60
2023-01-28T13:35:38.152Z,101110.88
2023-01-28T13:40:41.947Z,101114.73
2023-01-28T13:45:56.325Z,101121.02
2023-01-28T13:51:01.273Z,101125.77
2023-01-28T13:56:15.536Z,101131.52
2023-01-28T14:01:57.719Z,101131.32
2023-01-28T14:07:37.010Z,101123.73
2023-01-28T14:12:48.759Z,101123.48
2023-01-28T14:17:55.313Z,101127.33
2023-01-28T14:23:06.170Z,101124.34
2023-01-28T14:28:18.689Z,101131.45
2023-01-28T14:33:22.779Z,101127.16
2023-01-28T14:38:25.661Z,101127.73
2023-01-28T14:43:28.529Z,101129.37
2023-01-28T14:48:45.123Z,101130.55
2023-01-28T14:54:27.141Z,101136.04
2023-01-28T14:59:51.868Z,101122.34
2023-01-28T15:04:55.620Z,101119.38
2023-01-28T15:10:05.458Z,101107.54
2023-01-28T15:15:19.875Z,101091.23
2023-01-28T15:20:25.066Z,101095.58
2023-01-28T15:25:30.487Z,101099.42
2023-01-28T15:30:33.799Z,101095.27
2023-01-28T15:35:37.034Z,101082.58
2023-01-28T15:40:45.246Z,101086.35
2023-01-28T15:45:49.986Z,101093.63
2023-01-28T15:51:09.296Z,101081.95
2023-01-28T15:56:14.272Z,101083.98
2023-01-28T16:01:19.982Z,101077.11
2023-01-28T16:06:23.317Z,101085.56
2023-01-28T16:11:32.602Z,101102.55
2023-01-28T16:16:38.138Z,101099.37
2023-01-28T16:21:45.968Z,101105.11
2023-01-28T16:27:01.151Z,101121.86
2023-01-28T16:32:04.184Z,101119.92
2023-01-28T16:37:10.646Z,101121.38
2023-01-28T16:42:13.479Z,101113.71
2023-01-28T16:47:16.502Z,101115.33
2023-01-28T16:52:19.451Z,101120.39
2023-01-28T16:57:22.895Z,101123.62
2023-01-28T17:02:25.971Z,101136.94
2023-01-28T17:07:28.783Z,101137.80
2023-01-28T17:12:31.931Z,101134.28
2023-01-28T17:17:34.816Z,101120.89
2023-01-28T17:22:37.642Z,101124.95
2023-01-28T17:27:40.569Z,101120.30
2023-01-28T17:32:44.835Z,101112.09
2023-01-28T17:37:48.359Z,101100.30
2023-01-28T17:42:51.242Z,101090.25
2023-01-28T17:47:54.105Z,101091.92
2023-01-28T17:52:57.515Z,101088.58
2023-01-28T17:58:00.354Z,101080.55
2023-01-28T18:03:03.602Z,101079.23
2023-01-28T18:08:07.050Z,101084.36
2023-01-28T18:13:09.961Z,101092.44
2023-01-28T18:18:12.778Z,101092.98
2023-01-28T18:23:15.590Z,101098.34
2023-01-28T18:28:18.745Z,101099.76
2023-01-28T18:33:23.453Z,101103.55
2023-01-28T18:38:26.209Z,101103.73
2023-01-28T18:43:32.611Z,101103.33
2023-01-28T18:48:35.366Z,101099.61
2023-01-28T18:53:38.429Z,101098.98
2023-01-28T18:58:41.269Z,101098.26
2023-01-28T19:03:44.051Z,101096.97
2023-01-28T19:08:54.899Z,101081.79
2023-01-28T19:13:58.356Z,101082.90
2023-01-28T19:19:01.835Z,101081.94
2023-01-28T19:24:10.036Z,101086.74
2023-01-28T19:29:16.259Z,101089.89
2023-01-28T19:34:19.193Z,101084.02
2023-01-28T19:39:22.009Z,101092.41
2023-01-28T19:44:24.762Z,101088.02
2023-01-28T19:49:27.990Z,101073.64
2023-01-28T19:54:30.787Z,101062.10
2023-01-28T19:59:33.549Z,101062.05
2023-01-28T20:04:36.390Z,101063.79
2023-01-28T20:09:39.180Z,101072.00
2023-01-28T20:14:44.478Z,101069.31
2023-01-28T20:19:47.227Z,101069.19
2023-01-28T20:24:57.222Z,101069.58
2023-01-28T20:30:00.160Z,101061.79
2023-01-28T20:35:03.931Z,101065.64
2023-01-28T20:40:09.700Z,101064.45
2023-01-28T20:45:12.630Z,101060.48
2023-01-28T20:50:16.751Z,101054.05
2023-01-28T20:55:19.833Z,101049.83
2023-01-28T21:00:23.061Z,101046.70
2023-01-28T21:05:25.924Z,101032.98
2023-01-28T21:10:28.688Z,101027.20
2023-01-28T21:15:31.509Z,101026.65
2023-01-28T21:20:34.405Z,101033.94
2023-01-28T21:25:37.205Z,101031.30
2023-01-28T21:30:40.513Z,101019.85
2023-01-28T21:35:43.844Z,101027.71
2023-01-28T21:40:46.662Z,101034.24
2023-01-28T21:45:55.641Z,101025.95
2023-01-28T21:51:26.571Z,101027.33
2023-01-28T21:56:29.416Z,101029.95
2023-01-28T22:01:32.296Z,101021.16
2023-01-28T22:06:35.137Z,101010.79
2023-01-28T22:11:42.716Z,101016.42
2023-01-28T22:16:45.941Z,101018.14
2023-01-28T22:21:49.172Z,101024.29
2023-01-28T22:26:53.886Z,101010.04
2023-01-28T22:31:56.730Z,101009.50
2023-01-28T22:36:59.533Z,101005.75
2023-01-28T22:42:03.989Z,101001.58
2023-01-28T22:47:06.807Z,101000.90
2023-01-28T22:52:09.519Z,100994.25
2023-01-28T22:57:12.271Z,100988.78
2023-01-28T23:02:15.470Z,100977.58
2023-01-28T23:07:18.221Z,100964.06
2023-01-28T23:12:21.006Z,100954.16
2023-01-28T23:17:42.403Z,100946.64
2023-01-28T23:23:03.849Z,100937.77
2023-01-28T23:28:06.763Z,100915.00
2023-01-28T23:33:10.261Z,100907.50
2023-01-28T23:38:13.100Z,100911.98
2023-01-28T23:43:15.832Z,100914.61
2023-01-28T23:48:18.720Z,100918.80
2023-01-28T23:53:21.573Z,100910.67
2023-01-28T23:58:42.192Z,100901.45
